sensor_id;sensor_type;location;lat;lon;timestamp;pressure;altitude;pressure_sealevel;temperature;humidity
56668;BME280;42542;48.360;10.958;2023-07-24T00:01:25;95533.72;;;18.78;70.35
56668;BME280;42542;48.360;10.958;2023-07-24T00:04:30;95534.97;;;18.75;70.65
56668;BME280;42542;48.360;10.958;2023-07-24T00:07:33;95535.47;;;18.72;70.58
56668;BME280;42542;48.360;10.958;2023-07-24T00:10:36;95528.59;;;18.69;70.96
56668;BME280;42542;48.360;10.958;2023-07-24T00:13:38;95522.59;;;18.67;71.38
56668;BME280;42542;48.360;10.958;2023-07-24T00:16:42;95523.28;;;18.63;71.34
56668;BME280;42542;48.360;10.958;2023-07-24T00:19:47;95514.78;;;18.59;71.35
56668;BME280;42542;48.360;10.958;2023-07-24T00:22:50;95513.38;;;18.57;71.74
56668;BME280;42542;48.360;10.958;2023-07-24T00:25:52;95506.72;;;18.53;72.10
56668;BME280;42542;48.360;10.958;2023-07-24T00:28:56;95493.88;;;18.48;72.44
56668;BME280;42542;48.360;10.958;2023-07-24T00:32:00;95499.53;;;18.47;72.47
56668;BME280;42542;48.360;10.958;2023-07-24T00:35:03;95498.34;;;18.43;72.79
56668;BME280;42542;48.360;10.958;2023-07-24T00:38:06;95500.88;;;18.38;72.89
56668;BME280;42542;48.360;10.958;2023-07-24T00:41:09;95501.34;;;18.34;72.94
56668;BME280;42542;48.360;10.958;2023-07-24T00:44:11;95487.44;;;18.31;73.22
56668;BME280;42542;48.360;10.958;2023-07-24T00:47:18;95488.97;;;18.27;73.56
56668;BME280;42542;48.360;10.958;2023-07-24T00:50:21;95492.50;;;18.27;73.74
56668;BME280;42542;48.360;10.958;2023-07-24T00:53:26;95489.78;;;18.27;73.69
56668;BME280;42542;48.360;10.958;2023-07-24T00:56:31;95480.84;;;18.27;73.96
56668;BME280;42542;48.360;10.958;2023-07-24T00:59:34;95492.50;;;18.27;73.93
56668;BME280;42542;48.360;10.958;2023-07-24T01:02:36;95501.22;;;18.29;74.11
56668;BME280;42542;48.360;10.958;2023-07-24T01:05:40;95504.50;;;18.31;74.36
56668;BME280;42542;48.360;10.958;2023-07-24T01:08:43;95505.94;;;18.34;73.68
56668;BME280;42542;48.360;10.958;2023-07-24T01:11:51;95510.06;;;18.37;73.60
56668;BME280;42542;48.360;10.958;2023-07-24T01:15:26;95512.91;;;18.42;73.23
56668;BME280;42542;48.360;10.958;2023-07-24T01:18:33;95504.31;;;18.45;73.89
56668;BME280;42542;48.360;10.958;2023-07-24T01:21:49;95504.25;;;18.51;74.08
56668;BME280;42542;48.360;10.958;2023-07-24T01:25:31;95503.19;;;18.52;75.00
56668;BME280;42542;48.360;10.958;2023-07-24T01:28:40;95501.91;;;18.55;74.49
56668;BME280;42542;48.360;10.958;2023-07-24T01:31:43;95494.84;;;18.54;74.68
56668;BME280;42542;48.360;10.958;2023-07-24T01:34:48;95501.72;;;18.56;74.67
56668;BME280;42542;48.360;10.958;2023-07-24T01:37:55;95504.44;;;18.56;75.12
56668;BME280;42542;48.360;10.958;2023-07-24T01:40:59;95495.47;;;18.56;75.29
56668;BME280;42542;48.360;10.958;2023-07-24T01:44:01;95499.00;;;18.56;75.23
56668;BME280;42542;48.360;10.958;2023-07-24T01:47:04;95505.66;;;18.54;75.30
56668;BME280;42542;48.360;10.958;2023-07-24T01:50:07;95531.09;;;18.53;75.62
56668;BME280;42542;48.360;10.958;2023-07-24T01:53:10;95553.56;;;18.53;75.26
56668;BME280;42542;48.360;10.958;2023-07-24T01:56:14;95612.28;;;18.53;75.72
56668;BME280;42542;48.360;10.958;2023-07-24T01:59:16;95647.06;;;18.56;76.71
56668;BME280;42542;48.360;10.958;2023-07-24T02:02:22;95628.13;;;18.56;78.15
56668;BME280;42542;48.360;10.958;2023-07-24T02:05:25;95587.22;;;18.64;80.39
56668;BME280;42542;48.360;10.958;2023-07-24T02:08:31;95513.91;;;18.65;80.28
56668;BME280;42542;48.360;10.958;2023-07-24T02:11:33;95454.34;;;18.65;82.74
56668;BME280;42542;48.360;10.958;2023-07-24T02:14:34;95416.44;;;18.65;84.87
56668;BME280;42542;48.360;10.958;2023-07-24T02:17:36;95381.69;;;18.62;84.61
56668;BME280;42542;48.360;10.958;2023-07-24T02:20:39;95387.34;;;18.61;86.16
56668;BME280;42542;48.360;10.958;2023-07-24T02:23:42;95378.63;;;18.59;85.92
56668;BME280;42542;48.360;10.958;2023-07-24T02:26:47;95408.38;;;18.59;87.62
56668;BME280;42542;48.360;10.958;2023-07-24T02:29:49;95465.47;;;18.57;89.05
56668;BME280;42542;48.360;10.958;2023-07-24T02:32:52;95463.19;;;18.54;91.02
56668;BME280;42542;48.360;10.958;2023-07-24T02:35:55;95512.13;;;18.53;92.07
56668;BME280;42542;48.360;10.958;2023-07-24T02:39:01;95683.19;;;18.43;94.34
56668;BME280;42542;48.360;10.958;2023-07-24T02:42:04;95743.28;;;18.27;94.39
56668;BME280;42542;48.360;10.958;2023-07-24T02:45:07;95776.84;;;18.19;93.65
56668;BME280;42542;48.360;10.958;2023-07-24T02:48:13;95747.31;;;18.18;94.44
56668;BME280;42542;48.360;10.958;2023-07-24T02:51:14;95745.44;;;18.18;94.85
56668;BME280;42542;48.360;10.958;2023-07-24T02:54:17;95729.19;;;18.18;95.59
56668;BME280;42542;48.360;10.958;2023-07-24T02:57:20;95712.97;;;18.18;96.79
56668;BME280;42542;48.360;10.958;2023-07-24T03:00:23;95690.50;;;18.18;98.29
56668;BME280;42542;48.360;10.958;2023-07-24T03:03:27;95654.28;;;18.19;98.32
56668;BME280;42542;48.360;10.958;2023-07-24T03:06:30;95590.19;;;18.19;96.49
56668;BME280;42542;48.360;10.958;2023-07-24T03:09:34;95552.31;;;18.19;98.27
56668;BME280;42542;48.360;10.958;2023-07-24T03:12:36;95516.09;;;18.20;99.52
56668;BME280;42542;48.360;10.958;2023-07-24T03:15:39;95486.34;;;18.20;98.26
56668;BME280;42542;48.360;10.958;2023-07-24T03:18:42;95454.53;;;18.16;97.78
56668;BME280;42542;48.360;10.958;2023-07-24T03:21:45;95442.75;;;18.10;98.60
56668;BME280;42542;48.360;10.958;2023-07-24T03:24:47;95442.53;;;18.12;98.66
56668;BME280;42542;48.360;10.958;2023-07-24T03:27:49;95461.47;;;18.12;99.74
56668;BME280;42542;48.360;10.958;2023-07-24T03:30:51;95474.56;;;18.15;100.00
56668;BME280;42542;48.360;10.958;2023-07-24T03:33:54;95483.03;;;18.18;100.00
56668;BME280;42542;48.360;10.958;2023-07-24T03:36:59;95461.16;;;18.20;100.00
56668;BME280;42542;48.360;10.958;2023-07-24T03:40:01;95455.16;;;18.18;100.00
56668;BME280;42542;48.360;10.958;2023-07-24T03:43:06;95440.22;;;18.15;100.00
56668;BME280;42542;48.360;10.958;2023-07-24T03:46:11;95425.16;;;18.19;100.00
56668;BME280;42542;48.360;10.958;2023-07-24T03:49:16;95404.81;;;18.17;100.00
56668;BME280;42542;48.360;10.958;2023-07-24T03:52:22;95400.44;;;18.16;100.00
56668;BME280;42542;48.360;10.958;2023-07-24T03:55:23;95405.28;;;18.14;100.00
56668;BME280;42542;48.360;10.958;2023-07-24T03:58:32;95412.34;;;18.15;100.00
56668;BME280;42542;48.360;10.958;2023-07-24T04:01:35;95414.22;;;18.14;100.00
56668;BME280;42542;48.360;10.958;2023-07-24T04:04:38;95421.72;;;18.12;100.00
56668;BME280;42542;48.360;10.958;2023-07-24T04:07:43;95430.66;;;18.13;100.00
56668;BME280;42542;48.360;10.958;2023-07-24T04:10:49;95427.13;;;18.12;100.00
56668;BME280;42542;48.360;10.958;2023-07-24T04:13:54;95431.50;;;18.13;100.00
56668;BME280;42542;48.360;10.958;2023-07-24T04:16:57;95426.09;;;18.13;100.00
56668;BME280;42542;48.360;10.958;2023-07-24T04:20:00;95437.94;;;18.12;100.00
56668;BME280;42542;48.360;10.958;2023-07-24T04:23:03;95453.97;;;18.14;100.00
56668;BME280;42542;48.360;10.958;2023-07-24T04:26:06;95457.25;;;18.16;100.00
56668;BME280;42542;48.360;10.958;2023-07-24T04:29:12;95468.88;;;18.16;100.00
56668;BME280;42542;48.360;10.958;2023-07-24T04:32:18;95448.91;;;18.17;100.00
56668;BME280;42542;48.360;10.958;2023-07-24T04:35:22;95379.63;;;18.16;100.00
56668;BME280;42542;48.360;10.958;2023-07-24T04:38:25;95375.75;;;18.12;100.00
56668;BME280;42542;48.360;10.958;2023-07-24T04:41:39;95392.41;;;18.09;100.00
56668;BME280;42542;48.360;10.958;2023-07-24T04:44:42;95385.13;;;18.10;100.00
56668;BME280;42542;48.360;10.958;2023-07-24T04:47:46;95386.56;;;18.12;100.00
56668;BME280;42542;48.360;10.958;2023-07-24T04:50:56;95374.47;;;18.15;100.00
56668;BME280;42542;48.360;10.958;2023-07-24T04:54:00;95377.19;;;18.15;100.00
56668;BME280;42542;48.360;10.958;2023-07-24T04:57:03;95379.63;;;18.16;100.00
56668;BME280;42542;48.360;10.958;2023-07-24T05:00:07;95377.53;;;18.18;100.00
56668;BME280;42542;48.360;10.958;2023-07-24T05:03:10;95391.44;;;18.22;100.00
56668;BME280;42542;48.360;10.958;2023-07-24T05:06:16;95366.63;;;18.25;100.00
56668;BME280;42542;48.360;10.958;2023-07-24T05:09:22;95394.03;;;18.28;100.00
56668;BME280;42542;48.360;10.958;2023-07-24T05:12:24;95396.50;;;18.30;100.00
56668;BME280;42542;48.360;10.958;2023-07-24T05:15:26;95406.88;;;18.33;100.00
56668;BME280;42542;48.360;10.958;2023-07-24T05:18:31;95409.81;;;18.31;100.00
56668;BME280;42542;48.360;10.958;2023-07-24T05:21:34;95396.28;;;18.31;100.00
56668;BME280;42542;48.360;10.958;2023-07-24T05:24:37;95397.47;;;18.36;100.00
56668;BME280;42542;48.360;10.958;2023-07-24T05:27:43;95388.53;;;18.35;100.00
56668;BME280;42542;48.360;10.958;2023-07-24T05:30:47;95392.06;;;18.36;100.00
56668;BME280;42542;48.360;10.958;2023-07-24T05:33:52;95390.19;;;18.36;100.00
56668;BME280;42542;48.360;10.958;2023-07-24T05:36:54;95410.31;;;18.40;100.00
56668;BME280;42542;48.360;10.958;2023-07-24T05:39:56;95382.19;;;18.41;100.00
56668;BME280;42542;48.360;10.958;2023-07-24T05:43:00;95391.28;;;18.47;100.00
56668;BME280;42542;48.360;10.958;2023-07-24T05:46:03;95396.56;;;18.53;100.00
56668;BME280;42542;48.360;10.958;2023-07-24T05:49:08;95393.81;;;18.60;100.00
56668;BME280;42542;48.360;10.958;2023-07-24T05:52:11;95399.59;;;18.63;100.00
56668;BME280;42542;48.360;10.958;2023-07-24T05:55:14;95394.53;;;18.67;100.00
56668;BME280;42542;48.360;10.958;2023-07-24T05:58:17;95371.81;;;18.68;100.00
56668;BME280;42542;48.360;10.958;2023-07-24T06:01:22;95354.97;;;18.66;100.00
56668;BME280;42542;48.360;10.958;2023-07-24T06:04:25;95359.22;;;18.62;100.00
56668;BME280;42542;48.360;10.958;2023-07-24T06:07:28;95360.88;;;18.63;100.00
56668;BME280;42542;48.360;10.958;2023-07-24T06:10:31;95361.22;;;18.66;100.00
56668;BME280;42542;48.360;10.958;2023-07-24T06:13:34;95367.00;;;18.70;100.00
56668;BME280;42542;48.360;10.958;2023-07-24T06:16:39;95362.06;;;18.79;100.00
56668;BME280;42542;48.360;10.958;2023-07-24T06:19:41;95361.97;;;18.85;100.00
56668;BME280;42542;48.360;10.958;2023-07-24T06:22:44;95367.38;;;18.97;100.00
56668;BME280;42542;48.360;10.958;2023-07-24T06:25:48;95380.22;;;19.13;100.00
56668;BME280;42542;48.360;10.958;2023-07-24T06:28:53;95367.03;;;19.28;100.00
56668;BME280;42542;48.360;10.958;2023-07-24T06:31:56;95372.31;;;19.35;100.00
56668;BME280;42542;48.360;10.958;2023-07-24T06:34:59;95378.44;;;19.42;100.00
56668;BME280;42542;48.360;10.958;2023-07-24T06:38:01;95399.44;;;19.46;100.00
56668;BME280;42542;48.360;10.958;2023-07-24T06:41:04;95472.41;;;19.48;100.00
56668;BME280;42542;48.360;10.958;2023-07-24T06:44:10;95542.50;;;19.44;100.00
56668;BME280;42542;48.360;10.958;2023-07-24T06:47:13;95578.66;;;19.38;100.00
56668;BME280;42542;48.360;10.958;2023-07-24T06:50:16;95610.91;;;19.28;100.00
56668;BME280;42542;48.360;10.958;2023-07-24T06:53:20;95580.56;;;19.08;99.74
56668;BME280;42542;48.360;10.958;2023-07-24T06:56:23;95600.53;;;18.95;99.83
56668;BME280;42542;48.360;10.958;2023-07-24T06:59:25;95581.19;;;18.80;100.00
56668;BME280;42542;48.360;10.958;2023-07-24T07:02:26;95587.22;;;18.64;100.00
56668;BME280;42542;48.360;10.958;2023-07-24T07:05:32;95578.63;;;18.49;100.00
56668;BME280;42542;48.360;10.958;2023-07-24T07:08:35;95594.25;;;18.47;100.00
56668;BME280;42542;48.360;10.958;2023-07-24T07:11:39;95613.47;;;18.39;100.00
56668;BME280;42542;48.360;10.958;2023-07-24T07:14:42;95590.88;;;18.33;100.00
56668;BME280;42542;48.360;10.958;2023-07-24T07:17:48;95589.88;;;18.27;100.00
56668;BME280;42542;48.360;10.958;2023-07-24T07:20:54;95594.91;;;18.24;100.00
56668;BME280;42542;48.360;10.958;2023-07-24T07:23:57;95596.41;;;18.20;100.00
56668;BME280;42542;48.360;10.958;2023-07-24T07:27:00;95591.91;;;18.14;100.00
56668;BME280;42542;48.360;10.958;2023-07-24T07:30:05;95611.50;;;18.09;100.00
56668;BME280;42542;48.360;10.958;2023-07-24T07:33:09;95602.81;;;18.07;100.00
56668;BME280;42542;48.360;10.958;2023-07-24T07:36:14;95610.31;;;18.05;100.00
56668;BME280;42542;48.360;10.958;2023-07-24T07:39:18;95619.25;;;18.06;100.00
56668;BME280;42542;48.360;10.958;2023-07-24T07:42:20;95590.53;;;18.05;100.00
56668;BME280;42542;48.360;10.958;2023-07-24T07:45:25;95563.50;;;18.05;100.00
56668;BME280;42542;48.360;10.958;2023-07-24T07:48:28;95572.66;;;18.04;100.00
56668;BME280;42542;48.360;10.958;2023-07-24T07:51:32;95588.44;;;18.07;100.00
56668;BME280;42542;48.360;10.958;2023-07-24T07:54:38;95559.28;;;18.09;100.00
56668;BME280;42542;48.360;10.958;2023-07-24T07:57:40;95534.09;;;18.08;100.00
56668;BME280;42542;48.360;10.958;2023-07-24T08:00:44;95507.66;;;18.10;100.00
56668;BME280;42542;48.360;10.958;2023-07-24T08:03:46;95472.50;;;18.10;100.00
56668;BME280;42542;48.360;10.958;2023-07-24T08:06:48;95410.47;;;18.15;100.00
56668;BME280;42542;48.360;10.958;2023-07-24T08:09:51;95369.28;;;18.13;100.00
56668;BME280;42542;48.360;10.958;2023-07-24T08:13:01;95371.03;;;18.08;100.00
56668;BME280;42542;48.360;10.958;2023-07-24T08:16:12;95389.72;;;18.09;100.00
56668;BME280;42542;48.360;10.958;2023-07-24T08:19:27;95409.63;;;18.15;100.00
56668;BME280;42542;48.360;10.958;2023-07-24T08:22:30;95410.00;;;18.18;100.00
56668;BME280;42542;48.360;10.958;2023-07-24T08:25:32;95404.72;;;18.23;100.00
56668;BME280;42542;48.360;10.958;2023-07-24T08:28:35;95384.28;;;18.27;100.00
56668;BME280;42542;48.360;10.958;2023-07-24T08:31:37;95380.41;;;18.35;100.00
56668;BME280;42542;48.360;10.958;2023-07-24T08:34:39;95367.63;;;18.42;100.00
56668;BME280;42542;48.360;10.958;2023-07-24T08:37:45;95387.41;;;18.54;100.00
56668;BME280;42542;48.360;10.958;2023-07-24T08:40:49;95392.66;;;18.67;100.00
56668;BME280;42542;48.360;10.958;2023-07-24T08:43:51;95399.97;;;18.79;100.00
56668;BME280;42542;48.360;10.958;2023-07-24T08:46:53;95393.97;;;18.88;100.00
56668;BME280;42542;48.360;10.958;2023-07-24T08:49:56;95405.53;;;18.95;100.00
56668;BME280;42542;48.360;10.958;2023-07-24T08:53:01;95428.28;;;19.06;100.00
56668;BME280;42542;48.360;10.958;2023-07-24T08:56:08;95419.81;;;19.14;100.00
56668;BME280;42542;48.360;10.958;2023-07-24T08:59:10;95424.63;;;19.24;100.00
56668;BME280;42542;48.360;10.958;2023-07-24T09:02:12;95433.22;;;19.32;100.00
56668;BME280;42542;48.360;10.958;2023-07-24T09:05:16;95446.22;;;19.42;100.00
56668;BME280;42542;48.360;10.958;2023-07-24T09:08:32;95435.88;;;19.51;100.00
56668;BME280;42542;48.360;10.958;2023-07-24T09:11:53;95428.44;;;19.58;100.00
56668;BME280;42542;48.360;10.958;2023-07-24T09:15:03;95430.78;;;19.66;100.00
56668;BME280;42542;48.360;10.958;2023-07-24T09:18:09;95430.78;;;19.77;100.00
56668;BME280;42542;48.360;10.958;2023-07-24T09:21:14;95426.13;;;19.89;100.00
56668;BME280;42542;48.360;10.958;2023-07-24T09:24:16;95421.53;;;20.02;100.00
56668;BME280;42542;48.360;10.958;2023-07-24T09:27:27;95431.19;;;20.09;100.00
56668;BME280;42542;48.360;10.958;2023-07-24T09:30:33;95417.72;;;20.14;100.00
56668;BME280;42542;48.360;10.958;2023-07-24T09:33:40;95415.31;;;20.30;100.00
56668;BME280;42542;48.360;10.958;2023-07-24T09:36:43;95408.19;;;20.40;100.00
56668;BME280;42542;48.360;10.958;2023-07-24T09:39:46;95412.75;;;20.51;100.00
56668;BME280;42542;48.360;10.958;2023-07-24T09:42:48;95410.50;;;20.60;100.00
56668;BME280;42542;48.360;10.958;2023-07-24T09:46:14;95412.91;;;20.73;100.00
56668;BME280;42542;48.360;10.958;2023-07-24T09:49:16;95423.69;;;20.85;100.00
56668;BME280;42542;48.360;10.958;2023-07-24T09:52:20;95418.91;;;20.92;100.00
56668;BME280;42542;48.360;10.958;2023-07-24T09:55:30;95418.59;;;21.05;100.00
56668;BME280;42542;48.360;10.958;2023-07-24T09:58:38;95418.56;;;21.17;100.00
56668;BME280;42542;48.360;10.958;2023-07-24T10:01:42;95414.59;;;21.24;100.00
56668;BME280;42542;48.360;10.958;2023-07-24T10:04:46;95409.31;;;21.34;100.00
56668;BME280;42542;48.360;10.958;2023-07-24T10:07:50;95415.91;;;21.38;100.00
56668;BME280;42542;48.360;10.958;2023-07-24T10:10:52;95422.72;;;21.41;100.00
56668;BME280;42542;48.360;10.958;2023-07-24T10:13:55;95417.81;;;21.38;96.93
56668;BME280;42542;48.360;10.958;2023-07-24T10:16:59;95406.34;;;21.36;96.58
56668;BME280;42542;48.360;10.958;2023-07-24T10:20:07;95398.44;;;21.34;97.09
56668;BME280;42542;48.360;10.958;2023-07-24T10:23:15;95384.78;;;21.29;98.30
56668;BME280;42542;48.360;10.958;2023-07-24T10:26:24;95371.25;;;21.34;98.28
56668;BME280;42542;48.360;10.958;2023-07-24T10:29:34;95373.72;;;21.36;98.80
56668;BME280;42542;48.360;10.958;2023-07-24T10:32:46;95397.13;;;21.37;96.45
56668;BME280;42542;48.360;10.958;2023-07-24T10:35:53;95388.44;;;21.40;96.90
56668;BME280;42542;48.360;10.958;2023-07-24T10:38:56;95395.88;;;21.45;97.12
56668;BME280;42542;48.360;10.958;2023-07-24T10:42:08;95393.56;;;21.53;96.32
56668;BME280;42542;48.360;10.958;2023-07-24T10:45:11;95391.53;;;21.65;95.79
56668;BME280;42542;48.360;10.958;2023-07-24T10:48:22;95377.31;;;21.80;94.88
56668;BME280;42542;48.360;10.958;2023-07-24T10:51:25;95377.19;;;21.92;92.72
56668;BME280;42542;48.360;10.958;2023-07-24T10:54:31;95365.16;;;22.04;92.37
56668;BME280;42542;48.360;10.958;2023-07-24T10:57:35;95360.63;;;22.15;89.54
56668;BME280;42542;48.360;10.958;2023-07-24T11:00:41;95357.75;;;22.27;89.55
56668;BME280;42542;48.360;10.958;2023-07-24T11:03:52;95349.91;;;22.30;85.08
56668;BME280;42542;48.360;10.958;2023-07-24T11:06:56;95349.47;;;22.38;86.10
56668;BME280;42542;48.360;10.958;2023-07-24T11:10:14;95353.88;;;22.44;85.10
56668;BME280;42542;48.360;10.958;2023-07-24T11:13:24;95350.94;;;22.51;84.76
56668;BME280;42542;48.360;10.958;2023-07-24T11:16:31;95357.00;;;22.58;82.21
56668;BME280;42542;48.360;10.958;2023-07-24T11:19:37;95347.44;;;22.55;79.88
56668;BME280;42542;48.360;10.958;2023-07-24T11:22:42;95327.03;;;22.58;79.76
56668;BME280;42542;48.360;10.958;2023-07-24T11:25:47;95316.75;;;22.65;81.19
56668;BME280;42542;48.360;10.958;2023-07-24T11:28:50;95295.81;;;22.71;80.01
56668;BME280;42542;48.360;10.958;2023-07-24T11:31:55;95301.13;;;22.82;80.04
56668;BME280;42542;48.360;10.958;2023-07-24T11:35:02;95326.31;;;22.94;80.06
56668;BME280;42542;48.360;10.958;2023-07-24T11:38:09;95311.66;;;23.06;79.03
56668;BME280;42542;48.360;10.958;2023-07-24T11:41:12;95320.16;;;23.14;78.15
56668;BME280;42542;48.360;10.958;2023-07-24T11:44:15;95344.19;;;23.17;76.51
56668;BME280;42542;48.360;10.958;2023-07-24T11:47:50;95395.19;;;23.17;73.77
56668;BME280;42542;48.360;10.958;2023-07-24T11:50:55;95426.97;;;23.06;73.62
56668;BME280;42542;48.360;10.958;2023-07-24T11:54:09;95470.78;;;23.00;73.02
56668;BME280;42542;48.360;10.958;2023-07-24T11:57:16;95484.06;;;22.91;74.13
56668;BME280;42542;48.360;10.958;2023-07-24T12:00:27;95528.59;;;22.75;77.73
56668;BME280;42542;48.360;10.958;2023-07-24T12:03:31;95558.19;;;22.49;81.67
56668;BME280;42542;48.360;10.958;2023-07-24T12:06:37;95564.63;;;22.22;84.63
56668;BME280;42542;48.360;10.958;2023-07-24T12:09:41;95562.41;;;21.85;86.33
56668;BME280;42542;48.360;10.958;2023-07-24T12:12:46;95572.63;;;21.45;87.31
56668;BME280;42542;48.360;10.958;2023-07-24T12:15:49;95573.09;;;21.13;88.72
56668;BME280;42542;48.360;10.958;2023-07-24T12:18:52;95542.63;;;20.83;90.10
56668;BME280;42542;48.360;10.958;2023-07-24T12:21:54;95504.84;;;20.53;91.59
56668;BME280;42542;48.360;10.958;2023-07-24T12:25:11;95510.06;;;20.31;93.51
56668;BME280;42542;48.360;10.958;2023-07-24T12:28:21;95501.00;;;20.14;94.94
56668;BME280;42542;48.360;10.958;2023-07-24T12:31:24;95521.31;;;20.00;96.16
56668;BME280;42542;48.360;10.958;2023-07-24T12:34:30;95536.53;;;19.89;97.52
56668;BME280;42542;48.360;10.958;2023-07-24T12:37:32;95538.31;;;19.83;98.30
56668;BME280;42542;48.360;10.958;2023-07-24T12:40:35;95542.56;;;19.79;98.91
56668;BME280;42542;48.360;10.958;2023-07-24T12:43:38;95501.28;;;19.77;99.64
56668;BME280;42542;48.360;10.958;2023-07-24T12:46:44;95487.34;;;19.74;99.62
56668;BME280;42542;48.360;10.958;2023-07-24T12:49:46;95455.63;;;19.74;100.00
56668;BME280;42542;48.360;10.958;2023-07-24T12:52:48;95415.56;;;19.76;100.00
56668;BME280;42542;48.360;10.958;2023-07-24T12:55:51;95391.50;;;19.80;100.00
56668;BME280;42542;48.360;10.958;2023-07-24T12:58:54;95399.97;;;19.83;100.00
56668;BME280;42542;48.360;10.958;2023-07-24T13:01:56;95387.94;;;19.91;100.00
56668;BME280;42542;48.360;10.958;2023-07-24T13:05:01;95379.19;;;20.01;100.00
56668;BME280;42542;48.360;10.958;2023-07-24T13:08:05;95358.75;;;20.10;100.00
56668;BME280;42542;48.360;10.958;2023-07-24T13:11:09;95343.25;;;20.22;100.00
56668;BME280;42542;48.360;10.958;2023-07-24T13:14:12;95321.97;;;20.31;100.00
56668;BME280;42542;48.360;10.958;2023-07-24T13:17:14;95295.25;;;20.39;100.00
56668;BME280;42542;48.360;10.958;2023-07-24T13:20:17;95306.28;;;20.49;100.00
56668;BME280;42542;48.360;10.958;2023-07-24T13:23:20;95308.78;;;20.51;99.79
56668;BME280;42542;48.360;10.958;2023-07-24T13:26:23;95313.63;;;20.65;100.00
56668;BME280;42542;48.360;10.958;2023-07-24T13:29:26;95294.34;;;20.84;100.00
56668;BME280;42542;48.360;10.958;2023-07-24T13:32:30;95287.59;;;21.03;100.00
56668;BME280;42542;48.360;10.958;2023-07-24T13:35:34;95300.91;;;21.38;100.00
56668;BME280;42542;48.360;10.958;2023-07-24T13:38:45;95319.81;;;21.71;100.00
56668;BME280;42542;48.360;10.958;2023-07-24T13:41:46;95313.16;;;22.06;100.00
56668;BME280;42542;48.360;10.958;2023-07-24T13:44:49;95317.28;;;22.35;100.00
56668;BME280;42542;48.360;10.958;2023-07-24T13:47:52;95315.56;;;22.56;96.45
56668;BME280;42542;48.360;10.958;2023-07-24T13:50:54;95290.72;;;22.74;97.09
56668;BME280;42542;48.360;10.958;2023-07-24T13:53:56;95276.38;;;22.89;95.71
56668;BME280;42542;48.360;10.958;2023-07-24T13:56:58;95265.81;;;22.98;93.87
56668;BME280;42542;48.360;10.958;2023-07-24T14:00:01;95271.31;;;23.03;93.78
56668;BME280;42542;48.360;10.958;2023-07-24T14:03:26;95267.84;;;23.17;94.58
56668;BME280;42542;48.360;10.958;2023-07-24T14:06:32;95264.66;;;23.35;94.79
56668;BME280;42542;48.360;10.958;2023-07-24T14:09:36;95278.44;;;23.56;93.05
56668;BME280;42542;48.360;10.958;2023-07-24T14:12:46;95277.47;;;23.77;90.86
56668;BME280;42542;48.360;10.958;2023-07-24T14:15:50;95286.81;;;24.01;87.26
56668;BME280;42542;48.360;10.958;2023-07-24T14:18:52;95293.16;;;24.22;85.11
56668;BME280;42542;48.360;10.958;2023-07-24T14:21:54;95306.34;;;24.45;81.12
56668;BME280;42542;48.360;10.958;2023-07-24T14:24:58;95296.25;;;24.66;81.13
56668;BME280;42542;48.360;10.958;2023-07-24T14:27:59;95269.47;;;24.83;79.82
56668;BME280;42542;48.360;10.958;2023-07-24T14:31:01;95262.63;;;25.11;79.78
56668;BME280;42542;48.360;10.958;2023-07-24T14:34:07;95264.75;;;25.40;79.90
56668;BME280;42542;48.360;10.958;2023-07-24T14:37:15;95257.84;;;25.67;79.51
56668;BME280;42542;48.360;10.958;2023-07-24T14:40:18;95272.00;;;25.90;74.40
56668;BME280;42542;48.360;10.958;2023-07-24T14:43:20;95266.78;;;25.88;71.42
56668;BME280;42542;48.360;10.958;2023-07-24T14:46:22;95275.25;;;25.97;73.74
56668;BME280;42542;48.360;10.958;2023-07-24T14:49:24;95271.84;;;26.15;73.72
56668;BME280;42542;48.360;10.958;2023-07-24T14:52:26;95271.25;;;26.33;68.30
56668;BME280;42542;48.360;10.958;2023-07-24T14:55:28;95275.66;;;26.29;65.13
56668;BME280;42542;48.360;10.958;2023-07-24T14:58:30;95275.41;;;26.16;63.50
56668;BME280;42542;48.360;10.958;2023-07-24T15:01:33;95276.81;;;26.13;65.10
56668;BME280;42542;48.360;10.958;2023-07-24T15:04:35;95282.59;;;26.07;63.59
56668;BME280;42542;48.360;10.958;2023-07-24T15:07:41;95292.81;;;25.91;63.79
56668;BME280;42542;48.360;10.958;2023-07-24T15:10:46;95284.38;;;25.77;63.59
56668;BME280;42542;48.360;10.958;2023-07-24T15:14:02;95289.34;;;25.60;63.70
56668;BME280;42542;48.360;10.958;2023-07-24T15:17:09;95266.94;;;25.38;63.06
56668;BME280;42542;48.360;10.958;2023-07-24T15:20:14;95266.16;;;25.22;64.02
56668;BME280;42542;48.360;10.958;2023-07-24T15:23:16;95265.38;;;25.06;64.72
56668;BME280;42542;48.360;10.958;2023-07-24T15:26:20;95259.63;;;24.93;66.26
56668;BME280;42542;48.360;10.958;2023-07-24T15:29:24;95260.44;;;24.83;66.96
56668;BME280;42542;48.360;10.958;2023-07-24T15:32:26;95284.22;;;24.72;67.79
56668;BME280;42542;48.360;10.958;2023-07-24T15:35:31;95293.78;;;24.55;66.98
56668;BME280;42542;48.360;10.958;2023-07-24T15:38:33;95289.91;;;24.35;67.40
56668;BME280;42542;48.360;10.958;2023-07-24T15:41:35;95274.59;;;24.19;67.90
56668;BME280;42542;48.360;10.958;2023-07-24T15:44:41;95263.06;;;24.02;69.21
56668;BME280;42542;48.360;10.958;2023-07-24T15:47:45;95268.78;;;23.90;71.69
56668;BME280;42542;48.360;10.958;2023-07-24T15:50:47;95280.72;;;23.74;72.75
56668;BME280;42542;48.360;10.958;2023-07-24T15:53:53;95277.41;;;23.62;73.51
56668;BME280;42542;48.360;10.958;2023-07-24T15:56:55;95274.34;;;23.48;75.87
56668;BME280;42542;48.360;10.958;2023-07-24T15:59:57;95268.22;;;23.36;77.96